Time;durP1;ratioP1;P1;durP2;ratioP2;P2;SDS_P1;SDS_P2;PMS_P1;PMS_P2;Temp;Humidity;BMP_temperature;BMP_pressure;BME280_temperature;BME280_humidity;BME280_pressure;Samples;Min_cycle;Max_cycle;Signal;HPM_P1;HPM_P2
2021/07/08 14:31:44;;;;;;;7.63;4.55;;;;;;;24.14;53.33;102192.72;4977034;28;20426;-42
2021/07/08 17:45:28;;;;;;;6.03;3.42;;;;;;;21.61;51.70;102195.94;5085230;27;21375;-48
2021/07/08 17:47:54;;;;;;;5.68;3.70;;;;;;;21.44;52.89;102192.59;5084824;28;20641;-53
2021/07/08 17:50:20;;;;;;;4.95;3.60;;;;;;;21.33;53.37;102179.44;5043741;28;20028;-51
2021/07/08 17:52:45;;;;;;;6.07;3.53;;;;;;;21.21;53.10;102194.59;5012186;28;20053;-54
2021/07/08 17:55:12;;;;;;;4.65;3.58;;;;;;;21.13;54.46;102185.78;5035857;28;20556;-53
2021/07/08 17:57:38;;;;;;;5.25;3.60;;;;;;;21.04;54.15;102192.94;5030097;28;20063;-50
2021/07/08 18:00:06;;;;;;;4.97;2.97;;;;;;;20.96;54.84;102196.56;5018543;28;20233;-50
2021/07/08 18:02:32;;;;;;;4.85;3.55;;;;;;;20.88;54.03;102196.63;5020082;28;20055;-49
2021/07/08 18:04:58;;;;;;;4.57;3.55;;;;;;;20.67;54.96;102203.88;5023573;28;20401;-55
2021/07/08 18:07:24;;;;;;;4.80;3.45;;;;;;;20.57;56.53;102205.69;4996438;28;20124;-52
2021/07/08 18:09:49;;;;;;;5.95;3.85;;;;;;;20.44;57.15;102204.88;5021115;28;20021;-52
2021/07/08 18:12:14;;;;;;;5.28;3.80;;;;;;;20.36;57.78;102212.00;5023846;28;20396;-54
2021/07/08 18:14:42;;;;;;;6.55;3.95;;;;;;;20.21;58.78;102209.41;5021234;28;20095;-51
2021/07/08 18:17:08;;;;;;;6.75;4.20;;;;;;;20.07;60.38;102211.22;5029676;28;20045;-49
2021/07/08 18:19:33;;;;;;;6.13;4.00;;;;;;;19.97;58.91;102218.34;5029467;28;20034;-48
2021/07/08 18:21:59;;;;;;;5.72;4.05;;;;;;;19.93;58.61;102221.00;5030859;28;20409;-52
2021/07/08 18:24:24;;;;;;;5.40;3.92;;;;;;;19.87;58.71;102219.28;5025321;28;20164;-52
2021/07/08 18:28:05;;;;;;;6.50;4.63;;;;;;;19.86;59.27;102220.16;5016340;28;20607;-50
2021/07/08 18:30:30;;;;;;;5.97;4.25;;;;;;;19.84;59.42;102214.84;5011214;28;20473;-52
2021/07/08 18:32:57;;;;;;;6.05;4.18;;;;;;;19.87;59.03;102218.38;5019277;28;20036;-53
2021/07/08 18:35:23;;;;;;;6.28;4.10;;;;;;;19.86;59.39;102222.81;5018144;28;20037;-49
2021/07/08 18:37:49;;;;;;;5.85;4.13;;;;;;;19.79;59.11;102227.22;5018813;28;20036;-52
2021/07/08 18:40:17;;;;;;;7.97;4.70;;;;;;;19.69;59.84;102230.81;5014687;28;20499;-52
2021/07/08 18:42:44;;;;;;;6.15;4.10;;;;;;;19.69;59.09;102235.22;5010206;28;20030;-53
2021/07/08 18:45:12;;;;;;;5.38;3.70;;;;;;;19.61;59.68;102237.88;5056949;28;20043;-51
2021/07/08 18:47:38;;;;;;;5.65;3.70;;;;;;;19.51;59.39;102243.19;5075821;28;20041;-50
2021/07/08 18:50:08;;;;;;;4.65;3.17;;;;;;;19.41;58.65;102245.78;5077939;28;20028;-51
2021/07/08 18:52:34;;;;;;;4.07;3.05;;;;;;;19.38;58.20;102252.88;5080635;28;20159;-51
2021/07/08 18:55:00;;;;;;;4.28;3.17;;;;;;;19.31;58.38;102254.63;5086527;28;20494;-52
2021/07/08 18:57:25;;;;;;;4.18;2.78;;;;;;;19.18;56.79;102250.22;5074306;28;20043;-51
2021/07/08 18:59:50;;;;;;;4.45;2.70;;;;;;;19.14;57.68;102253.75;5082406;28;20039;-51
2021/07/08 19:02:16;;;;;;;3.80;2.90;;;;;;;19.03;57.95;102263.41;5079543;28;20028;-49
2021/07/08 19:04:43;;;;;;;5.10;2.40;;;;;;;19.04;57.25;102251.97;5053736;28;20035;-51
2021/07/08 19:07:08;;;;;;;3.90;2.60;;;;;;;18.97;57.49;102252.84;5081111;28;20073;-52
2021/07/08 19:09:34;;;;;;;3.47;2.67;;;;;;;18.82;56.21;102258.13;5064100;28;20036;-49
2021/07/08 19:11:59;;;;;;;4.18;2.70;;;;;;;18.77;57.16;102267.81;5081466;28;20024;-50
2021/07/08 19:14:24;;;;;;;3.70;2.65;;;;;;;18.70;58.45;102260.75;5061548;28;20028;-52
2021/07/08 19:16:50;;;;;;;2.67;2.00;;;;;;;18.67;58.12;102269.53;5078243;28;20032;-51
2021/07/08 19:19:15;;;;;;;3.00;2.42;;;;;;;18.65;57.12;102271.31;5079686;28;20107;-51
2021/07/08 19:21:41;;;;;;;3.63;2.60;;;;;;;18.64;57.20;102275.72;5084118;28;20327;-53
2021/07/08 19:24:07;;;;;;;4.28;2.58;;;;;;;18.64;57.67;102267.78;5081553;28;20024;-52
2021/07/08 19:26:35;;;;;;;11.68;4.03;;;;;;;18.61;59.61;102272.16;5080566;28;20048;-51
2021/07/08 19:29:02;;;;;;;5.90;3.13;;;;;;;18.55;60.70;102273.03;5082979;28;20031;-49
2021/07/08 19:31:32;;;;;;;7.15;3.50;;;;;;;18.46;61.23;102280.03;5076464;28;20281;-50
2021/07/08 19:34:01;;;;;;;5.85;3.80;;;;;;;18.40;64.13;102291.47;5080988;28;20042;-53
2021/07/08 19:36:28;;;;;;;5.78;3.83;;;;;;;18.32;63.02;102290.53;5080582;28;20734;-54
2021/07/08 19:38:54;;;;;;;4.88;3.53;;;;;;;18.22;62.84;102292.25;5047989;28;20530;-49
2021/07/08 19:41:20;;;;;;;5.32;3.25;;;;;;;18.17;62.50;102287.84;5063403;28;20165;-48
2021/07/08 19:43:45;;;;;;;7.03;4.22;;;;;;;18.07;64.02;102289.53;5068173;28;20024;-51
2021/07/08 19:46:11;;;;;;;5.95;4.30;;;;;;;17.93;63.88;102290.34;5070241;28;20032;-51
2021/07/08 19:48:36;;;;;;;5.93;4.00;;;;;;;17.83;64.74;102292.94;5065210;28;20059;-52
2021/07/08 19:53:46;;;;;;;10.02;5.32;;;;;;;17.56;67.58;102299.75;5065764;28;20498;-50
2021/07/08 19:56:12;;;;;;;9.43;6.35;;;;;;;17.44;68.35;102298.75;5051029;28;20023;-51
2021/07/08 19:58:37;;;;;;;10.18;6.72;;;;;;;17.28;68.33;102302.16;5065390;28;20063;-50
2021/07/08 20:01:03;;;;;;;10.02;7.20;;;;;;;17.18;69.33;102310.88;5065731;28;20027;-51
2021/07/08 20:03:28;;;;;;;8.80;6.95;;;;;;;17.14;68.63;102308.19;5065767;28;20089;-51
2021/07/08 20:05:53;;;;;;;10.55;8.15;;;;;;;16.99;69.67;102311.56;5061082;28;20020;-52
2021/07/08 20:08:19;;;;;;;11.82;7.97;;;;;;;16.86;70.51;102320.19;5066501;28;20030;-53
2021/07/08 20:10:44;;;;;;;13.00;8.63;;;;;;;16.74;71.40;102320.94;5061811;28;20024;-53
2021/07/08 20:13:10;;;;;;;15.43;9.43;;;;;;;16.66;72.57;102326.97;5069717;28;20024;-50
2021/07/08 20:15:35;;;;;;;12.38;8.77;;;;;;;16.56;71.97;102332.13;5060291;28;20036;-51
2021/07/08 20:18:00;;;;;;;13.65;9.05;;;;;;;16.49;73.20;102339.91;5068324;28;20026;-53
2021/07/08 20:20:26;;;;;;;14.48;8.43;;;;;;;16.41;72.27;102350.34;5044872;28;20311;-48
2021/07/08 20:22:51;;;;;;;12.15;8.35;;;;;;;16.37;72.78;102342.41;5059295;28;20175;-50
2021/07/08 20:25:18;;;;;;;13.52;9.63;;;;;;;16.32;72.98;102357.25;5062514;28;20640;-51
2021/07/08 20:27:43;;;;;;;13.02;8.75;;;;;;;16.23;73.48;102351.00;5065337;28;20130;-53
2021/07/08 20:30:09;;;;;;;14.73;9.23;;;;;;;16.17;74.75;102345.66;5058370;28;20658;-48
2021/07/08 20:32:35;;;;;;;13.52;8.98;;;;;;;16.11;74.68;102342.03;5038908;28;20047;-47
2021/07/08 20:35:00;;;;;;;13.27;8.93;;;;;;;16.06;75.13;102341.09;5062812;28;20042;-50
2021/07/08 20:37:25;;;;;;;19.30;9.77;;;;;;;15.99;75.44;102341.88;5066070;28;20028;-51
2021/07/08 20:39:51;;;;;;;14.68;9.65;;;;;;;15.94;75.92;102347.06;5062136;28;20034;-52
2021/07/08 20:42:16;;;;;;;18.45;10.20;;;;;;;15.89;76.53;102342.59;5062277;28;20491;-51
2021/07/08 20:44:42;;;;;;;14.77;9.85;;;;;;;15.85;76.43;102351.31;5065615;28;20043;-49
2021/07/08 20:47:08;;;;;;;13.88;9.60;;;;;;;15.81;76.31;102358.25;5066371;28;20028;-49
2021/07/08 20:49:33;;;;;;;18.90;9.98;;;;;;;15.77;76.71;102348.56;5067167;28;20024;-50
2021/07/08 20:51:59;;;;;;;15.52;9.77;;;;;;;15.72;76.75;102348.50;5062475;28;20032;-50
2021/07/08 20:54:24;;;;;;;19.92;10.38;;;;;;;15.70;76.87;102338.81;5067969;28;20032;-51
2021/07/08 20:56:49;;;;;;;18.08;10.55;;;;;;;15.67;77.25;102344.03;5063289;28;20016;-49
2021/07/08 20:59:15;;;;;;;16.15;9.63;;;;;;;15.66;77.40;102347.53;5063290;28;20124;-51
2021/07/08 21:01:40;;;;;;;17.15;9.90;;;;;;;15.64;77.51;102341.34;5061016;28;20556;-51
2021/07/08 21:04:05;;;;;;;17.65;10.85;;;;;;;15.61;77.87;102350.09;5066943;28;20477;-49
2021/07/08 21:06:31;;;;;;;21.58;11.30;;;;;;;15.61;78.39;102349.19;5066991;28;20433;-50
2021/07/08 21:08:56;;;;;;;21.13;11.43;;;;;;;15.59;77.59;102346.53;5044981;28;20143;-51
2021/07/08 21:11:21;;;;;;;20.23;11.40;;;;;;;15.58;78.29;102341.25;5065174;28;20081;-50
2021/07/08 21:13:47;;;;;;;18.63;11.63;;;;;;;15.57;77.97;102343.00;5062927;28;20024;-51
2021/07/08 21:16:12;;;;;;;18.33;11.02;;;;;;;15.56;78.13;102351.72;5065817;28;20024;-52
2021/07/08 21:18:37;;;;;;;21.23;11.65;;;;;;;15.51;78.72;102349.84;5061132;28;20136;-50
2021/07/08 21:21:03;;;;;;;21.25;12.57;;;;;;;15.46;78.67;102347.16;5044059;28;20107;-49
2021/07/08 21:23:29;;;;;;;23.88;12.70;;;;;;;15.42;79.55;102353.22;5047661;28;20418;-49
2021/07/08 21:25:54;;;;;;;23.40;13.43;;;;;;;15.39;79.27;102354.03;5043224;28;20024;-54
2021/07/08 21:28:19;;;;;;;25.65;12.98;;;;;;;15.39;80.22;102345.28;5069415;28;20097;-52
2021/07/08 21:30:45;;;;;;;24.33;13.23;;;;;;;15.37;79.98;102346.97;5061906;28;20141;-51
2021/07/08 21:33:10;;;;;;;23.52;12.43;;;;;;;15.35;80.14;102352.22;5062586;28;20040;-50
2021/07/08 21:35:36;;;;;;;24.70;13.02;;;;;;;15.33;79.89;102351.31;5047024;28;20040;-49
2021/07/08 21:38:02;;;;;;;22.13;12.63;;;;;;;15.29;80.25;102346.00;5049221;28;20547;-50
2021/07/08 21:40:27;;;;;;;19.92;11.90;;;;;;;15.26;79.74;102346.81;5061047;28;20032;-50
2021/07/08 21:42:52;;;;;;;22.17;12.88;;;;;;;15.25;80.08;102347.66;5062931;28;20490;-49
2021/07/08 21:45:18;;;;;;;23.08;13.05;;;;;;;15.24;80.53;102343.28;5059489;28;20436;-53
2021/07/08 21:47:45;;;;;;;22.17;12.57;;;;;;;15.22;80.72;102346.72;5064982;28;20370;-52
2021/07/08 21:50:10;;;;;;;22.02;12.25;;;;;;;15.21;80.11;102343.22;5061140;28;20476;-50
2021/07/08 21:52:36;;;;;;;21.48;12.73;;;;;;;15.20;80.14;102343.19;5046453;28;20024;-48
2021/07/08 21:55:01;;;;;;;23.55;12.95;;;;;;;15.17;79.83;102336.16;5064350;28;20563;-51
2021/07/08 21:57:26;;;;;;;20.25;11.82;;;;;;;15.17;80.39;102335.25;5065724;28;20160;-51
2021/07/08 21:59:54;;;;;;;22.70;12.45;;;;;;;15.15;80.07;102329.97;5063125;28;20035;-54
2021/07/08 22:02:19;;;;;;;23.83;13.50;;;;;;;15.16;80.11;102339.63;5048470;28;20060;-47
2021/07/08 22:04:45;;;;;;;22.95;12.95;;;;;;;15.13;80.43;102342.19;5063616;28;20108;-53
2021/07/08 22:07:10;;;;;;;22.75;13.07;;;;;;;15.11;80.09;102338.66;5065409;28;20047;-48
2021/07/08 22:09:37;;;;;;;21.35;12.75;;;;;;;15.08;80.44;102341.22;5067563;28;20841;-50
2021/07/08 22:12:03;;;;;;;21.55;12.20;;;;;;;15.03;80.32;102342.88;5063938;28;20036;-53
2021/07/08 22:14:28;;;;;;;20.00;11.88;;;;;;;14.99;80.93;102355.09;5064735;28;20054;-52
2021/07/08 22:16:55;;;;;;;23.17;12.88;;;;;;;14.95;80.75;102348.00;5067815;28;20032;-53
2021/07/08 22:19:20;;;;;;;23.13;12.10;;;;;;;14.93;80.67;102354.09;5063429;28;20111;-49
2021/07/08 22:21:46;;;;;;;24.95;13.18;;;;;;;14.89;80.74;102347.88;5064773;28;20446;-53
2021/07/08 22:24:11;;;;;;;24.90;13.50;;;;;;;14.88;80.64;102355.75;5049140;28;20020;-49
2021/07/08 22:26:36;;;;;;;23.30;13.43;;;;;;;14.81;80.84;102351.22;5066176;28;20066;-52
2021/07/08 22:29:03;;;;;;;24.83;13.45;;;;;;;14.80;81.96;102358.22;5062824;28;20035;-52
2021/07/08 22:31:29;;;;;;;23.75;13.77;;;;;;;14.78;81.60;102359.03;5065658;28;20027;-51
2021/07/08 22:33:54;;;;;;;26.70;13.82;;;;;;;14.75;81.54;102353.72;5047357;28;20478;-50
2021/07/08 22:36:19;;;;;;;26.73;12.73;;;;;;;14.72;81.49;102358.91;5063293;28;20040;-50
2021/07/08 22:38:45;;;;;;;22.95;12.10;;;;;;;14.71;81.65;102365.00;5066972;28;20109;-49
2021/07/08 22:41:10;;;;;;;25.63;13.60;;;;;;;14.69;81.50;102361.47;5062521;28;20439;-49
2021/07/08 22:43:35;;;;;;;24.27;12.68;;;;;;;14.70;81.46;102363.25;5063610;28;20221;-53
2021/07/08 22:46:01;;;;;;;23.92;13.05;;;;;;;14.68;81.33;102355.34;5048009;28;20309;-51
2021/07/08 22:48:27;;;;;;;23.90;13.00;;;;;;;14.63;81.44;102361.34;5063703;28;20613;-51
2021/07/08 22:50:53;;;;;;;27.08;13.55;;;;;;;14.57;82.05;102362.13;5064135;28;20036;-50
2021/07/08 22:53:19;;;;;;;24.85;12.98;;;;;;;14.53;81.96;102365.50;5048491;28;20502;-51
2021/07/08 22:55:45;;;;;;;24.77;12.02;;;;;;;14.50;81.82;102373.34;5068588;28;20403;-51
2021/07/08 22:58:10;;;;;;;25.20;12.35;;;;;;;14.46;82.18;102376.72;5065949;28;20386;-52
2021/07/08 23:00:35;;;;;;;27.02;13.27;;;;;;;14.41;82.40;102367.88;5055869;28;20031;-53
2021/07/08 23:03:01;;;;;;;24.75;13.25;;;;;;;14.35;82.29;102363.34;5065958;28;20077;-49
2021/07/08 23:05:26;;;;;;;22.88;11.98;;;;;;;14.32;82.51;102355.44;5064616;28;20028;-51
2021/07/08 23:07:51;;;;;;;25.60;12.77;;;;;;;14.29;82.65;102351.84;5066900;28;20040;-51
2021/07/08 23:10:17;;;;;;;26.13;13.10;;;;;;;14.27;82.88;102357.09;5064165;28;20053;-52
2021/07/08 23:12:43;;;;;;;24.42;12.85;;;;;;;14.22;83.08;102354.34;5067341;28;20023;-50
2021/07/08 23:15:08;;;;;;;23.73;13.07;;;;;;;14.19;83.19;102359.53;5054244;28;20468;-51
2021/07/08 23:17:34;;;;;;;24.63;12.55;;;;;;;14.15;83.18;102359.41;5065801;28;20077;-50
2021/07/08 23:19:59;;;;;;;27.42;13.68;;;;;;;14.12;83.61;102356.72;5071194;28;20067;-48
2021/07/08 23:22:29;;;;;;;26.42;13.35;;;;;;;14.10;83.41;102361.03;5069570;28;20328;-49
2021/07/08 23:24:55;;;;;;;27.98;13.80;;;;;;;14.06;83.53;102359.22;5069477;28;21106;-50
2021/07/08 23:27:20;;;;;;;24.17;12.23;;;;;;;14.03;83.56;102359.13;5067950;28;20051;-51
2021/07/08 23:29:46;;;;;;;24.38;12.52;;;;;;;13.97;83.15;102354.63;5070593;28;20562;-49
2021/07/08 23:32:14;;;;;;;25.42;13.38;;;;;;;13.96;83.76;102355.50;5069518;28;20042;-55
2021/07/08 23:34:39;;;;;;;24.65;12.13;;;;;;;13.97;83.87;102366.84;5069444;28;20024;-53
2021/07/08 23:37:05;;;;;;;26.25;13.00;;;;;;;13.99;83.78;102354.66;5052068;28;20114;-48
